Time;durP1;ratioP1;P1;durP2;ratioP2;P2;SDS_P1;SDS_P2;PMS_P1;PMS_P2;Temp;Humidity;BMP_temperature;BMP_pressure;BME280_temperature;BME280_humidity;BME280_pressure;Samples;Min_cycle;Max_cycle;Signal;HPM_P1;HPM_P2
2021/12/04 00:02:42;;;;;;;3.50;1.50;;;;;;;;;;10565971;28;20130;-72
2021/12/04 00:07:45;;;;;;;3.70;1.40;;;;;;;;;;10558509;28;20043;-71
2021/12/04 00:12:49;;;;;;;2.63;1.30;;;;;;;;;;10560828;28;20297;-71
2021/12/04 00:17:56;;;;;;;1.53;0.83;;;;;;;;;;10551676;28;20052;-71
2021/12/04 00:23:00;;;;;;;2.27;0.97;;;;;;;;;;10556381;28;20294;-72
2021/12/04 00:28:03;;;;;;;2.88;1.10;;;;;;;;;;10561028;28;20046;-72
2021/12/04 00:33:12;;;;;;;3.30;1.70;;;;;;;;;;10548399;28;20066;-70
2021/12/04 00:49:11;;;;;;;0.77;0.63;;;;;;;;;;10549801;28;20392;-69
2021/12/04 00:54:15;;;;;;;0.73;0.57;;;;;;;;;;10552363;28;20123;-72
2021/12/04 00:59:18;;;;;;;1.07;0.30;;;;;;;;;;10556859;28;20495;-71
2021/12/04 01:04:22;;;;;;;1.57;0.90;;;;;;;;;;10565107;28;20049;-70
2021/12/04 01:09:27;;;;;;;3.40;0.67;;;;;;;;;;10556261;28;20051;-71
2021/12/04 01:14:31;;;;;;;5.43;1.50;;;;;;;;;;10555650;28;20109;-70
2021/12/04 01:19:36;;;;;;;3.50;1.50;;;;;;;;;;10563074;28;20054;-70
2021/12/04 01:24:39;;;;;;;1.10;0.60;;;;;;;;;;10559164;28;20052;-71
2021/12/04 01:29:42;;;;;;;2.27;0.90;;;;;;;;;;10559782;28;20046;-71
2021/12/04 01:34:47;;;;;;;2.50;1.30;;;;;;;;;;10555382;28;20526;-72
2021/12/04 01:39:49;;;;;;;;;;;;;;;;;;10556085;28;20116;-71
2021/12/04 01:44:52;;;;;;;1.63;0.73;;;;;;;;;;10550724;28;19979;-72
2021/12/04 01:49:59;;;;;;;3.53;0.80;;;;;;;;;;10546575;28;20055;-71
2021/12/04 01:55:02;;;;;;;1.60;1.00;;;;;;;;;;10568338;27;20043;-71
2021/12/04 02:00:06;;;;;;;1.43;0.90;;;;;;;;;;10549275;28;20067;-70
2021/12/04 02:05:10;;;;;;;0.60;0.40;;;;;;;;;;10551884;28;20043;-70
2021/12/04 02:10:14;;;;;;;0.90;0.70;;;;;;;;;;10551612;28;20154;-70
2021/12/04 02:15:17;;;;;;;2.70;1.10;;;;;;;;;;10552952;28;20055;-71
2021/12/04 02:20:23;;;;;;;0.88;0.55;;;;;;;;;;10548418;28;20151;-71
2021/12/04 02:25:26;;;;;;;0.80;0.50;;;;;;;;;;10556394;28;20305;-71
2021/12/04 02:30:48;;;;;;;1.47;0.83;;;;;;;;;;10550632;28;20138;-70
2021/12/04 02:35:54;;;;;;;1.47;0.80;;;;;;;;;;10551401;28;20046;-68
2021/12/04 02:41:00;;;;;;;3.30;1.00;;;;;;;;;;10552903;28;20059;-70
2021/12/04 02:46:03;;;;;;;1.07;0.73;;;;;;;;;;10545649;28;20078;-70
2021/12/04 02:51:07;;;;;;;1.40;0.70;;;;;;;;;;10548813;28;20134;-70
2021/12/04 02:56:12;;;;;;;2.20;0.93;;;;;;;;;;10561513;28;20131;-71
2021/12/04 03:01:15;;;;;;;1.43;0.80;;;;;;;;;;10546348;28;20035;-71
2021/12/04 03:06:20;;;;;;;0.10;0.10;;;;;;;;;;10551064;28;20114;-71
2021/12/04 03:11:23;;;;;;;0.30;0.30;;;;;;;;;;10548822;28;20063;-71
2021/12/04 03:16:25;;;;;;;0.77;0.47;;;;;;;;;;10548740;28;20084;-70
2021/12/04 03:21:30;;;;;;;3.93;0.70;;;;;;;;;;10547939;28;20530;-71
2021/12/04 03:26:34;;;;;;;2.53;0.90;;;;;;;;;;10550476;28;20127;-71
2021/12/04 03:31:52;;;;;;;3.27;0.60;;;;;;;;;;10556670;28;20044;-71
2021/12/04 03:42:17;;;;;;;1.13;0.70;;;;;;;;;;10549635;28;20380;-72
2021/12/04 03:47:21;;;;;;;2.07;0.80;;;;;;;;;;10544469;28;20488;-71
2021/12/04 03:52:25;;;;;;;0.83;0.40;;;;;;;;;;10552445;28;20059;-71
2021/12/04 03:57:28;;;;;;;;;;;;;;;;;;10552197;28;20296;-71
2021/12/04 04:02:31;;;;;;;2.33;0.60;;;;;;;;;;10548319;28;19928;-71
2021/12/04 04:07:35;;;;;;;0.83;0.47;;;;;;;;;;10572854;28;20130;-71
2021/12/04 04:12:38;;;;;;;1.17;0.57;;;;;;;;;;10567191;28;20120;-73
2021/12/04 04:17:43;;;;;;;0.80;0.70;;;;;;;;;;10550882;28;20047;-73
2021/12/04 04:22:48;;;;;;;1.97;1.40;;;;;;;;;;10549695;28;20095;-71
2021/12/04 04:27:51;;;;;;;0.30;0.20;;;;;;;;;;10548093;28;20076;-68
2021/12/04 04:32:55;;;;;;;2.03;1.00;;;;;;;;;;10560137;28;20121;-72
2021/12/04 04:38:07;;;;;;;1.38;0.77;;;;;;;;;;10552805;28;20355;-71
2021/12/04 04:59:39;;;;;;;1.43;1.10;;;;;;;;;;10558316;28;20332;-71
2021/12/04 05:15:37;;;;;;;0.30;0.30;;;;;;;;;;10533479;28;20087;-73
2021/12/04 05:20:41;;;;;;;0.60;0.40;;;;;;;;;;10560623;28;20044;-71
2021/12/04 05:25:45;;;;;;;0.60;0.50;;;;;;;;;;10562354;28;20044;-71
2021/12/04 05:30:49;;;;;;;1.57;1.07;;;;;;;;;;10554303;28;20044;-71
2021/12/04 05:35:52;;;;;;;1.98;1.00;;;;;;;;;;10559947;28;20067;-72
2021/12/04 05:40:57;;;;;;;2.00;0.80;;;;;;;;;;10560365;28;20047;-73
2021/12/04 05:46:04;;;;;;;1.97;0.90;;;;;;;;;;10559028;28;20115;-73
2021/12/04 05:56:36;;;;;;;0.80;0.60;;;;;;;;;;10545953;28;20036;-74
2021/12/04 06:01:38;;;;;;;1.00;0.33;;;;;;;;;;10555674;28;20036;-73
2021/12/04 06:06:43;;;;;;;0.17;0.17;;;;;;;;;;10548284;28;20055;-73
2021/12/04 06:11:48;;;;;;;1.43;0.70;;;;;;;;;;10542900;28;20130;-73
2021/12/04 06:16:50;;;;;;;0.20;0.20;;;;;;;;;;10546085;28;20044;-73
2021/12/04 06:27:15;;;;;;;2.70;1.30;;;;;;;;;;10573855;28;20047;-75
2021/12/04 06:32:19;;;;;;;1.73;1.03;;;;;;;;;;10547531;28;20074;-74
2021/12/04 06:37:22;;;;;;;1.13;0.65;;;;;;;;;;10562857;27;20043;-74
2021/12/04 06:42:27;;;;;;;3.83;1.33;;;;;;;;;;10552601;28;20046;-74
2021/12/04 06:47:32;;;;;;;1.87;0.87;;;;;;;;;;10536263;28;20460;-75
2021/12/04 06:52:35;;;;;;;;;;;;;;;;;;10543807;28;20070;-73
2021/12/04 06:57:40;;;;;;;1.60;1.23;;;;;;;;;;10550571;28;19920;-73
2021/12/04 07:02:44;;;;;;;11.83;4.00;;;;;;;;;;10540488;28;20083;-74
2021/12/04 07:07:47;;;;;;;1.60;1.10;;;;;;;;;;10551285;28;20146;-72
2021/12/04 07:12:51;;;;;;;2.70;1.50;;;;;;;;;;10535515;28;20051;-74
2021/12/04 07:17:54;;;;;;;1.13;0.83;;;;;;;;;;10534149;28;20143;-73
2021/12/04 07:22:59;;;;;;;1.97;0.97;;;;;;;;;;10557104;28;20143;-74
2021/12/04 07:28:04;;;;;;;1.67;0.87;;;;;;;;;;10548467;28;20058;-74
2021/12/04 07:33:07;;;;;;;3.07;1.80;;;;;;;;;;10554276;28;20051;-74
2021/12/04 07:38:10;;;;;;;2.20;1.00;;;;;;;;;;10565749;28;20127;-74
2021/12/04 07:43:15;;;;;;;4.47;1.02;;;;;;;;;;10560349;28;20108;-73
2021/12/04 07:48:18;;;;;;;1.90;0.90;;;;;;;;;;10545844;28;20327;-76
2021/12/04 07:53:21;;;;;;;2.17;0.90;;;;;;;;;;10555660;27;20047;-74
2021/12/04 07:58:26;;;;;;;0.43;0.20;;;;;;;;;;10545762;28;20471;-74
2021/12/04 08:03:30;;;;;;;3.13;1.10;;;;;;;;;;10553786;28;20050;-73
2021/12/04 08:08:33;;;;;;;0.33;0.33;;;;;;;;;;10557981;28;20083;-73
2021/12/04 08:13:37;;;;;;;0.83;0.80;;;;;;;;;;10550395;28;20096;-74
2021/12/04 08:18:40;;;;;;;2.03;1.17;;;;;;;;;;10556799;28;20047;-71
2021/12/04 08:23:43;;;;;;;1.10;0.87;;;;;;;;;;10558999;28;20057;-73
2021/12/04 08:28:50;;;;;;;2.07;1.70;;;;;;;;;;10567041;28;20040;-75
2021/12/04 08:33:53;;;;;;;11.70;1.70;;;;;;;;;;10552290;28;20511;-76
2021/12/04 08:38:56;;;;;;;0.90;0.60;;;;;;;;;;10554488;28;20111;-74
2021/12/04 08:44:00;;;;;;;3.63;0.70;;;;;;;;;;10561209;28;20387;-74
2021/12/04 08:49:03;;;;;;;2.13;1.00;;;;;;;;;;10562207;28;20081;-75
2021/12/04 08:54:06;;;;;;;0.60;0.60;;;;;;;;;;10553252;28;20059;-70
2021/12/04 08:59:11;;;;;;;5.00;1.00;;;;;;;;;;10553115;28;20039;-71
2021/12/04 09:04:16;;;;;;;1.10;0.87;;;;;;;;;;10547208;27;20032;-72
2021/12/04 09:09:19;;;;;;;2.33;1.03;;;;;;;;;;10551505;28;20148;-72
2021/12/04 09:14:26;;;;;;;4.17;1.57;;;;;;;;;;10545136;28;20066;-73
2021/12/04 09:19:29;;;;;;;4.80;1.30;;;;;;;;;;10555931;28;20544;-73
2021/12/04 09:24:38;;;;;;;4.00;1.77;;;;;;;;;;10552069;28;20051;-74
2021/12/04 09:30:02;;;;;;;2.47;1.03;;;;;;;;;;10555674;28;20131;-73
2021/12/04 09:35:18;;;;;;;1.52;0.73;;;;;;;;;;10562274;28;20402;-74
2021/12/04 10:02:07;;;;;;;1.70;1.30;;;;;;;;;;10556978;28;20162;-76
2021/12/04 10:12:49;;;;;;;4.35;1.90;;;;;;;;;;10555424;28;20043;-71
2021/12/04 10:34:06;;;;;;;2.10;1.10;;;;;;;;;;10552419;28;20058;-72
2021/12/04 10:39:09;;;;;;;;;;;;;;;;;;10552744;28;20036;-71
2021/12/04 10:44:14;;;;;;;4.47;1.95;;;;;;;;;;10546976;28;19924;-70
2021/12/04 10:49:28;;;;;;;3.88;1.98;;;;;;;;;;10561213;28;20040;-70
2021/12/04 10:54:39;;;;;;;3.88;1.80;;;;;;;;;;10562203;28;20036;-71
2021/12/04 10:59:50;;;;;;;1.90;1.15;;;;;;;;;;10561653;28;20043;-71
2021/12/04 11:05:00;;;;;;;0.57;0.57;;;;;;;;;;10556873;28;20046;-70
2021/12/04 11:37:34;;;;;;;0.98;0.88;;;;;;;;;;10524802;28;20059;-73
2021/12/04 11:42:40;;;;;;;2.15;0.80;;;;;;;;;;10564094;28;20125;-72
2021/12/04 11:47:44;;;;;;;0.93;0.73;;;;;;;;;;10564179;28;20454;-72
2021/12/04 11:52:50;;;;;;;0.40;0.40;;;;;;;;;;10570899;28;20039;-72
2021/12/04 11:57:53;;;;;;;1.90;0.90;;;;;;;;;;10558441;28;20039;-71
2021/12/04 12:03:07;;;;;;;0.83;0.60;;;;;;;;;;10555137;28;20078;-71
2021/12/04 12:08:20;;;;;;;0.97;0.53;;;;;;;;;;10565107;28;20038;-73
2021/12/04 12:13:24;;;;;;;1.05;0.68;;;;;;;;;;10566590;27;20047;-72
2021/12/04 12:18:28;;;;;;;3.47;0.60;;;;;;;;;;10547808;28;20097;-72
2021/12/04 12:23:34;;;;;;;0.50;0.50;;;;;;;;;;10552614;28;20038;-72
2021/12/04 12:34:05;;;;;;;2.72;0.80;;;;;;;;;;10549741;28;20064;-72
2021/12/04 12:39:16;;;;;;;1.67;0.68;;;;;;;;;;10560056;28;20093;-72
2021/12/04 12:44:20;;;;;;;1.90;0.82;;;;;;;;;;10550622;28;20047;-73
2021/12/04 12:49:25;;;;;;;4.68;0.98;;;;;;;;;;10553755;28;20043;-73
2021/12/04 12:54:32;;;;;;;1.92;1.05;;;;;;;;;;10557766;28;20409;-72
2021/12/04 12:59:45;;;;;;;0.75;0.60;;;;;;;;;;10550874;28;20043;-71
2021/12/04 13:15:54;;;;;;;2.15;0.80;;;;;;;;;;10550756;28;20106;-71
2021/12/04 13:20:59;;;;;;;0.45;0.22;;;;;;;;;;10552125;28;20043;-71
2021/12/04 13:26:05;;;;;;;1.05;0.55;;;;;;;;;;10545793;27;20035;-71
2021/12/04 13:31:08;;;;;;;0.70;0.47;;;;;;;;;;10546130;28;20491;-72
2021/12/04 13:36:12;;;;;;;0.45;0.35;;;;;;;;;;10554420;28;20074;-71
2021/12/04 13:41:17;;;;;;;0.10;0.10;;;;;;;;;;10560992;28;20097;-72
2021/12/04 13:46:20;;;;;;;0.15;0.15;;;;;;;;;;10555510;28;20055;-67
2021/12/04 13:51:23;;;;;;;0.20;0.20;;;;;;;;;;10540642;28;20064;-68
2021/12/04 13:56:27;;;;;;;0.40;0.35;;;;;;;;;;10538679;27;20563;-69
2021/12/04 14:01:30;;;;;;;;;;;;;;;;;;10535852;28;20401;-69
2021/12/04 14:06:33;;;;;;;0.25;0.20;;;;;;;;;;10550127;28;19930;-69
2021/12/04 14:11:38;;;;;;;0.20;0.20;;;;;;;;;;10545073;28;20074;-69
2021/12/04 14:16:41;;;;;;;0.30;0.25;;;;;;;;;;10545913;28;20047;-70
2021/12/04 14:21:52;;;;;;;0.43;0.20;;;;;;;;;;10546670;28;20036;-70
2021/12/04 14:26:57;;;;;;;0.70;0.20;;;;;;;;;;10547945;28;20043;-71
2021/12/04 14:32:01;;;;;;;0.98;0.68;;;;;;;;;;10548095;28;20051;-71
2021/12/04 14:37:06;;;;;;;0.82;0.40;;;;;;;;;;10558610;28;20483;-70
2021/12/04 14:42:12;;;;;;;3.25;0.68;;;;;;;;;;10548679;28;20097;-70
2021/12/04 14:47:15;;;;;;;1.00;0.28;;;;;;;;;;10550363;28;20043;-70
2021/12/04 14:52:19;;;;;;;0.30;0.30;;;;;;;;;;10546142;28;20554;-69
2021/12/04 14:57:26;;;;;;;0.75;0.20;;;;;;;;;;10548569;28;20104;-69
2021/12/04 15:02:30;;;;;;;0.15;0.15;;;;;;;;;;10559523;28;20112;-70
2021/12/04 15:07:34;;;;;;;0.20;0.10;;;;;;;;;;10556414;28;20657;-70
2021/12/04 15:12:37;;;;;;;;;;;;;;;;;;10566365;28;20057;-72
2021/12/04 15:17:42;;;;;;;1.52;0.60;;;;;;;;;;10543555;28;19927;-71
2021/12/04 15:22:48;;;;;;;0.30;0.22;;;;;;;;;;10551412;28;20115;-71
2021/12/04 15:27:52;;;;;;;0.35;0.35;;;;;;;;;;10554254;28;20044;-70
2021/12/04 15:32:57;;;;;;;1.23;0.50;;;;;;;;;;10560488;28;20465;-71
2021/12/04 15:38:04;;;;;;;1.05;0.40;;;;;;;;;;10555999;28;20106;-72
2021/12/04 15:43:16;;;;;;;0.45;0.20;;;;;;;;;;10565478;28;20092;-71
2021/12/04 15:53:37;;;;;;;1.45;0.50;;;;;;;;;;10553013;28;20410;-70
2021/12/04 15:58:40;;;;;;;0.95;0.60;;;;;;;;;;10562691;28;20035;-69
2021/12/04 16:03:44;;;;;;;1.38;0.55;;;;;;;;;;10566507;28;20088;-70
2021/12/04 16:08:47;;;;;;;1.20;0.73;;;;;;;;;;10548899;28;20484;-67
2021/12/04 16:13:53;;;;;;;0.98;0.57;;;;;;;;;;10557793;28;20043;-71
2021/12/04 16:18:58;;;;;;;0.75;0.40;;;;;;;;;;10550500;28;20055;-70
2021/12/04 16:24:01;;;;;;;0.90;0.60;;;;;;;;;;10545702;27;20044;-69
2021/12/04 16:29:09;;;;;;;0.90;0.60;;;;;;;;;;10552547;28;20035;-70
2021/12/04 16:39:31;;;;;;;1.13;0.57;;;;;;;;;;10553000;28;20112;-69
2021/12/04 16:44:34;;;;;;;;;;;;;;;;;;10556494;28;20038;-70
2021/12/04 16:49:39;;;;;;;1.42;0.57;;;;;;;;;;10557622;28;19999;-70
2021/12/04 16:55:00;;;;;;;0.38;0.38;;;;;;;;;;10548467;28;20097;-70
2021/12/04 17:00:05;;;;;;;0.15;0.15;;;;;;;;;;10557445;28;20105;-69
2021/12/04 17:05:10;;;;;;;0.73;0.47;;;;;;;;;;10554233;28;20039;-70
2021/12/04 17:10:14;;;;;;;1.02;0.68;;;;;;;;;;10570437;28;20028;-69
2021/12/04 17:15:17;;;;;;;0.45;0.45;;;;;;;;;;10608019;28;20074;-70
2021/12/04 17:20:22;;;;;;;1.27;0.40;;;;;;;;;;10601429;28;20050;-69
2021/12/04 17:25:25;;;;;;;0.95;0.68;;;;;;;;;;10568127;28;20044;-69
2021/12/04 17:30:27;;;;;;;1.48;0.73;;;;;;;;;;10561224;28;20048;-70
2021/12/04 17:35:32;;;;;;;0.43;0.40;;;;;;;;;;10566338;28;20050;-70
2021/12/04 17:40:35;;;;;;;0.38;0.38;;;;;;;;;;10555287;28;20068;-69
2021/12/04 17:45:38;;;;;;;0.47;0.47;;;;;;;;;;10551329;27;20051;-70
2021/12/04 17:50:43;;;;;;;1.47;0.63;;;;;;;;;;10557628;28;20141;-69
2021/12/04 17:55:46;;;;;;;0.60;0.60;;;;;;;;;;10551783;28;20122;-68
2021/12/04 18:00:50;;;;;;;2.47;0.80;;;;;;;;;;10566992;28;20047;-69
2021/12/04 18:05:56;;;;;;;0.45;0.25;;;;;;;;;;10558458;28;20044;-68
2021/12/04 18:11:00;;;;;;;0.32;0.25;;;;;;;;;;10546173;27;20040;-71
2021/12/04 18:16:05;;;;;;;0.85;0.38;;;;;;;;;;10556292;28;21042;-70
2021/12/04 18:21:10;;;;;;;0.98;0.55;;;;;;;;;;10548466;28;20126;-70
2021/12/04 18:26:14;;;;;;;1.40;0.57;;;;;;;;;;10551262;28;20047;-70
2021/12/04 18:31:18;;;;;;;0.65;0.60;;;;;;;;;;10555250;28;20040;-69
2021/12/04 18:36:24;;;;;;;0.65;0.43;;;;;;;;;;10559735;28;20141;-70
2021/12/04 18:41:27;;;;;;;0.20;0.20;;;;;;;;;;10550287;28;20503;-70
2021/12/04 18:46:31;;;;;;;1.20;0.80;;;;;;;;;;10553081;28;20126;-69
2021/12/04 18:51:36;;;;;;;0.30;0.30;;;;;;;;;;10548848;27;20028;-70
2021/12/04 18:56:39;;;;;;;1.23;0.50;;;;;;;;;;10547785;28;20055;-71
2021/12/04 19:01:42;;;;;;;1.23;0.90;;;;;;;;;;10546330;28;20054;-70
2021/12/04 19:06:47;;;;;;;2.20;1.15;;;;;;;;;;10542019;28;20126;-70
2021/12/04 19:11:49;;;;;;;;;;;;;;;;;;10540267;28;22485;-69
2021/12/04 19:16:52;;;;;;;0.50;0.30;;;;;;;;;;10546135;28;19973;-69
2021/12/04 19:21:57;;;;;;;1.55;0.60;;;;;;;;;;10548912;28;20081;-71
2021/12/04 19:27:03;;;;;;;1.90;0.90;;;;;;;;;;10553172;28;20048;-69
2021/12/04 19:32:12;;;;;;;0.40;0.35;;;;;;;;;;10566777;28;20092;-69
2021/12/04 19:53:29;;;;;;;0.30;0.30;;;;;;;;;;10559847;28;20109;-70
2021/12/04 19:58:39;;;;;;;0.85;0.55;;;;;;;;;;10563696;28;20043;-69
2021/12/04 20:03:57;;;;;;;0.45;0.20;;;;;;;;;;10558865;28;20047;-69
2021/12/04 20:14:25;;;;;;;1.23;0.70;;;;;;;;;;10563864;28;20050;-70
2021/12/04 20:19:27;;;;;;;1.00;0.60;;;;;;;;;;10560759;27;20085;-70
2021/12/04 20:24:34;;;;;;;1.40;0.70;;;;;;;;;;10551067;27;20432;-71
2021/12/04 20:30:05;;;;;;;2.25;0.93;;;;;;;;;;10554444;28;20035;-70
2021/12/04 20:41:02;;;;;;;1.33;0.40;;;;;;;;;;10558804;28;20134;-69
2021/12/04 21:07:35;;;;;;;0.93;0.50;;;;;;;;;;10552133;28;20040;-69
2021/12/04 21:12:54;;;;;;;0.93;0.55;;;;;;;;;;10557093;27;20101;-69
2021/12/04 21:50:04;;;;;;;0.93;0.68;;;;;;;;;;10534265;28;20647;-69
2021/12/04 21:55:13;;;;;;;0.40;0.40;;;;;;;;;;10534587;28;20039;-70
2021/12/04 22:11:02;;;;;;;0.20;0.13;;;;;;;;;;10541063;28;20032;-71
2021/12/04 22:59:00;;;;;;;0.43;0.43;;;;;;;;;;10554248;28;20032;-70
2021/12/04 23:04:22;;;;;;;0.17;0.17;;;;;;;;;;10545733;28;20519;-69
2021/12/04 23:14:51;;;;;;;0.20;0.20;;;;;;;;;;10557534;28;20127;-70
2021/12/04 23:36:09;;;;;;;0.40;0.30;;;;;;;;;;10544745;28;20414;-71
